createdAt,value
2018-06-19T00:01:13.844Z,1.57
2018-06-19T00:03:43.314Z,1.20
2018-06-19T00:06:12.182Z,1.20
2018-06-19T00:08:40.951Z,1.03
2018-06-19T00:11:10.614Z,1.10
2018-06-19T00:13:39.605Z,1.20
2018-06-19T00:16:08.546Z,1.27
2018-06-19T00:18:45.789Z,1.03
2018-06-19T00:21:20.055Z,1.27
2018-06-19T00:23:48.846Z,1.40
2018-06-19T00:26:17.645Z,1.50
2018-06-19T00:28:47.573Z,1.67
2018-06-19T00:31:16.349Z,1.20
2018-06-19T00:33:45.094Z,1.50
2018-06-19T00:36:13.866Z,1.30
2018-06-19T00:38:42.621Z,1.83
2018-06-19T00:41:11.394Z,1.53
2018-06-19T00:43:40.162Z,1.57
2018-06-19T00:46:09.346Z,1.40
2018-06-19T00:48:38.147Z,1.50
2018-06-19T00:51:06.900Z,1.40
2018-06-19T00:53:35.657Z,1.30
2018-06-19T00:56:15.582Z,1.50
2018-06-19T00:58:44.391Z,1.40
2018-06-19T01:01:13.166Z,1.40
2018-06-19T01:03:41.992Z,1.40
2018-06-19T01:06:10.790Z,1.30
2018-06-19T01:08:39.598Z,1.30
2018-06-19T01:11:08.569Z,1.57
2018-06-19T01:13:37.347Z,1.50
2018-06-19T01:16:06.241Z,1.30
2018-06-19T01:18:35.019Z,1.67
2018-06-19T01:21:03.778Z,1.40
2018-06-19T01:23:32.549Z,1.30
2018-06-19T01:26:01.311Z,1.40
2018-06-19T01:28:30.129Z,1.40
2018-06-19T01:30:58.917Z,1.30
2018-06-19T01:33:27.685Z,1.80
2018-06-19T01:35:56.458Z,1.60
2018-06-19T01:38:25.214Z,1.57
2018-06-19T01:40:54.056Z,1.40
2018-06-19T01:43:22.857Z,1.70
2018-06-19T01:45:51.653Z,1.50
2018-06-19T01:48:20.403Z,1.37
2018-06-19T01:50:49.165Z,1.53
2018-06-19T01:53:17.933Z,1.73
2018-06-19T01:55:46.714Z,2.20
2018-06-19T01:58:15.530Z,1.70
2018-06-19T02:00:44.318Z,1.40
2018-06-19T02:03:13.106Z,1.83
2018-06-19T02:05:41.876Z,1.70
2018-06-19T02:08:10.711Z,1.40
2018-06-19T02:10:39.492Z,1.53
2018-06-19T02:13:08.277Z,1.40
2018-06-19T02:15:37.050Z,1.40
2018-06-19T02:18:05.866Z,1.60
2018-06-19T02:20:34.669Z,1.60
2018-06-19T02:23:03.466Z,1.83
2018-06-19T02:25:32.254Z,2.20
2018-06-19T02:28:01.075Z,1.90
2018-06-19T02:30:29.863Z,1.93
2018-06-19T02:32:58.646Z,1.57
2018-06-19T02:35:27.411Z,1.70
2018-06-19T02:37:56.195Z,1.80
2018-06-19T02:40:25.011Z,1.90
2018-06-19T02:42:53.796Z,2.20
2018-06-19T02:45:22.577Z,2.43
2018-06-19T02:47:51.330Z,1.83
2018-06-19T02:50:20.150Z,1.97
2018-06-19T02:52:48.965Z,1.90
2018-06-19T02:55:17.741Z,2.53
2018-06-19T02:57:46.535Z,2.10
2018-06-19T03:00:15.378Z,2.47
2018-06-19T03:02:44.136Z,2.60
2018-06-19T03:05:12.962Z,2.43
2018-06-19T03:07:41.732Z,1.90
2018-06-19T03:10:10.514Z,1.80
2018-06-19T03:12:39.573Z,1.83
2018-06-19T03:15:08.351Z,2.23
2018-06-19T03:17:37.122Z,2.03
2018-06-19T03:20:05.962Z,1.90
2018-06-19T03:22:34.729Z,1.83
2018-06-19T03:25:03.566Z,2.30
2018-06-19T03:27:32.326Z,2.10
2018-06-19T03:30:01.131Z,2.07
2018-06-19T03:32:29.905Z,1.90
2018-06-19T03:34:58.688Z,2.20
2018-06-19T03:37:27.451Z,2.53
2018-06-19T03:39:56.258Z,2.33
2018-06-19T03:42:25.078Z,2.50
2018-06-19T03:44:53.856Z,2.83
2018-06-19T03:47:22.632Z,2.20
2018-06-19T03:49:51.423Z,2.67
2018-06-19T03:52:20.186Z,2.40
2018-06-19T03:54:48.957Z,2.30
2018-06-19T03:57:17.729Z,2.20
2018-06-19T03:59:46.482Z,2.13
2018-06-19T04:02:15.250Z,2.40
2018-06-19T04:04:44.073Z,2.30
2018-06-19T04:07:12.851Z,2.40
2018-06-19T04:09:41.634Z,1.97
2018-06-19T04:12:10.394Z,2.10
2018-06-19T04:14:39.167Z,2.27
2018-06-19T04:17:07.930Z,2.27
2018-06-19T04:19:36.703Z,2.03
2018-06-19T04:22:05.491Z,2.03
2018-06-19T04:24:34.249Z,2.00
2018-06-19T04:27:03.022Z,1.90
2018-06-19T04:29:31.790Z,1.90
2018-06-19T04:32:00.580Z,2.20
2018-06-19T04:34:29.355Z,1.90
2018-06-19T04:36:58.122Z,1.60
2018-06-19T04:39:26.901Z,1.90
2018-06-19T04:41:55.692Z,1.40
2018-06-19T04:44:24.481Z,1.43
2018-06-19T04:46:53.262Z,1.37
2018-06-19T04:49:22.019Z,1.20
2018-06-19T04:51:50.820Z,1.50
2018-06-19T04:54:19.580Z,1.33
2018-06-19T04:56:48.381Z,1.00
2018-06-19T04:59:17.170Z,1.40
2018-06-19T05:01:45.946Z,1.80
2018-06-19T05:04:14.795Z,1.30
2018-06-19T05:06:43.658Z,1.27
2018-06-19T05:09:14.025Z,1.00
2018-06-19T05:11:44.389Z,1.53
2018-06-19T05:14:13.182Z,1.60
2018-06-19T05:16:42.490Z,1.23
2018-06-19T05:19:11.605Z,1.10
2018-06-19T05:21:40.411Z,1.43
2018-06-19T05:24:09.203Z,1.57
2018-06-19T05:26:38.069Z,1.70
2018-06-19T05:29:06.834Z,2.07
2018-06-19T05:31:35.609Z,1.80
2018-06-19T05:34:04.718Z,1.60
2018-06-19T05:36:33.485Z,1.47
2018-06-19T05:39:02.334Z,1.13
2018-06-19T05:41:31.137Z,1.40
2018-06-19T05:44:00.082Z,1.33
2018-06-19T05:46:28.856Z,1.50
2018-06-19T05:48:57.647Z,1.50
2018-06-19T05:51:26.434Z,1.93
2018-06-19T05:53:55.201Z,1.40
2018-06-19T05:56:24.001Z,1.50
2018-06-19T05:58:52.836Z,1.53
2018-06-19T06:01:21.601Z,1.43
2018-06-19T06:03:50.389Z,1.50
2018-06-19T06:06:19.418Z,1.90
2018-06-19T06:08:48.206Z,1.50
2018-06-19T06:11:17.045Z,1.60
2018-06-19T06:13:45.807Z,1.70
2018-06-19T06:16:14.572Z,1.50
2018-06-19T06:18:43.318Z,1.70
2018-06-19T06:21:12.106Z,1.43
2018-06-19T06:23:40.952Z,1.80
2018-06-19T06:26:09.771Z,1.30
2018-06-19T06:28:38.549Z,1.70
2018-06-19T06:31:07.542Z,1.80
2018-06-19T06:33:36.403Z,1.37
2018-06-19T06:36:05.529Z,1.43
2018-06-19T06:38:34.308Z,2.17
2018-06-19T06:41:03.093Z,1.47
2018-06-19T06:43:31.862Z,1.50
2018-06-19T06:46:00.773Z,1.37
2018-06-19T06:48:29.730Z,1.47
2018-06-19T06:50:58.678Z,1.77
2018-06-19T06:53:27.559Z,1.53
2018-06-19T06:55:56.330Z,1.60
2018-06-19T06:58:25.292Z,1.07
2018-06-19T07:00:54.061Z,1.70
2018-06-19T07:03:23.385Z,1.23
2018-06-19T07:05:52.690Z,1.27
2018-06-19T07:08:21.454Z,1.67
2018-06-19T07:10:50.266Z,1.40
2018-06-19T07:13:19.063Z,1.20
2018-06-19T07:15:48.076Z,1.30
2018-06-19T07:18:16.842Z,1.10
2018-06-19T07:20:45.709Z,1.50
2018-06-19T07:23:14.469Z,1.23
2018-06-19T07:25:43.287Z,1.33
2018-06-19T07:28:12.044Z,1.00
2018-06-19T07:30:40.815Z,1.30
2018-06-19T07:33:09.573Z,1.10
2018-06-19T07:35:38.391Z,1.00
2018-06-19T07:38:07.196Z,1.30
2018-06-19T07:40:36.047Z,0.90
2018-06-19T07:43:05.601Z,1.00
2018-06-19T07:45:34.897Z,1.10
2018-06-19T07:48:03.685Z,0.90
2018-06-19T07:50:38.986Z,1.13
2018-06-19T07:53:07.781Z,0.93
2018-06-19T07:55:36.570Z,1.43
2018-06-19T07:58:05.415Z,0.97
2018-06-19T08:00:34.233Z,1.07
2018-06-19T08:03:03.018Z,1.10
2018-06-19T08:05:31.806Z,1.07
2018-06-19T08:08:00.575Z,1.27
2018-06-19T08:10:29.357Z,1.20
2018-06-19T08:12:58.115Z,1.00
2018-06-19T08:15:26.883Z,0.80
2018-06-19T08:17:55.681Z,0.63
2018-06-19T08:20:24.482Z,0.77
2018-06-19T08:22:53.273Z,0.63
2018-06-19T08:25:22.056Z,0.80
2018-06-19T08:27:50.817Z,0.50
2018-06-19T08:30:19.618Z,0.67
2018-06-19T08:32:48.418Z,0.83
2018-06-19T08:35:17.217Z,0.63
2018-06-19T08:37:46.294Z,0.40
2018-06-19T08:40:15.042Z,0.30
2018-06-19T08:42:43.859Z,0.47
2018-06-19T08:45:12.640Z,0.40
2018-06-19T08:47:41.432Z,0.50
2018-06-19T08:50:10.248Z,0.30
2018-06-19T08:52:39.009Z,0.47
2018-06-19T08:55:07.832Z,0.40
2018-06-19T08:57:36.581Z,0.50
2018-06-19T09:00:05.473Z,0.47
2018-06-19T09:02:34.263Z,0.37
2018-06-19T09:05:03.129Z,0.40
2018-06-19T09:07:32.068Z,0.50
2018-06-19T09:10:00.845Z,0.37
2018-06-19T09:12:29.610Z,0.30
2018-06-19T09:14:58.801Z,0.30
2018-06-19T09:17:27.575Z,0.30
2018-06-19T09:19:56.396Z,0.40
2018-06-19T09:22:25.553Z,0.30
2018-06-19T09:24:54.317Z,0.53
2018-06-19T09:27:23.063Z,0.40
2018-06-19T09:29:51.895Z,0.30
2018-06-19T09:32:20.717Z,0.30
2018-06-19T09:34:49.531Z,0.30
2018-06-19T09:37:18.361Z,0.30
2018-06-19T09:39:47.189Z,0.60
2018-06-19T09:42:15.958Z,0.30
2018-06-19T09:44:44.814Z,0.50
2018-06-19T09:47:13.634Z,0.30
2018-06-19T09:49:42.530Z,0.23
2018-06-19T09:52:11.327Z,0.20
2018-06-19T09:54:40.241Z,0.33
2018-06-19T09:57:09.041Z,0.20
2018-06-19T09:59:37.908Z,0.43
2018-06-19T10:02:06.741Z,0.67
2018-06-19T10:04:35.514Z,0.60
2018-06-19T10:07:04.665Z,0.30
2018-06-19T10:09:33.509Z,0.30
2018-06-19T10:12:02.358Z,0.40
2018-06-19T10:14:31.170Z,0.30
2018-06-19T10:16:59.959Z,0.30
2018-06-19T10:19:28.791Z,0.40
2018-06-19T10:21:57.594Z,0.50
2018-06-19T10:24:26.365Z,1.40
2018-06-19T10:26:55.167Z,0.40
2018-06-19T10:29:24.048Z,0.40
2018-06-19T10:31:52.789Z,1.23
2018-06-19T10:34:21.565Z,0.40
2018-06-19T10:36:50.318Z,0.20
2018-06-19T10:39:19.118Z,0.40
2018-06-19T10:41:47.949Z,0.60
2018-06-19T10:44:16.728Z,0.53
2018-06-19T10:46:45.512Z,0.70
2018-06-19T10:49:14.301Z,0.70
2018-06-19T10:51:43.244Z,0.20
2018-06-19T10:54:11.990Z,0.30
2018-06-19T10:56:40.751Z,0.30
2018-06-19T10:59:09.623Z,0.20
2018-06-19T11:01:38.425Z,0.20
2018-06-19T11:04:07.239Z,0.30
2018-06-19T11:06:36.069Z,0.30
2018-06-19T11:09:06.987Z,0.13
2018-06-19T11:11:35.778Z,0.47
2018-06-19T11:14:04.588Z,0.40
2018-06-19T11:16:33.362Z,0.23
2018-06-19T11:19:02.128Z,0.20
2018-06-19T11:21:30.986Z,0.20
2018-06-19T11:23:59.851Z,0.47
2018-06-19T11:26:28.617Z,0.30
2018-06-19T11:28:57.422Z,0.50
2018-06-19T11:31:26.167Z,0.77
2018-06-19T11:33:54.996Z,0.20
2018-06-19T11:36:23.786Z,0.60
2018-06-19T11:38:52.581Z,0.30
2018-06-19T11:41:21.345Z,0.50
2018-06-19T11:43:50.318Z,0.30
2018-06-19T11:46:19.226Z,0.60
2018-06-19T11:48:47.993Z,0.20
2018-06-19T11:51:16.919Z,0.40
2018-06-19T11:53:45.750Z,0.30
2018-06-19T11:56:14.530Z,0.40
2018-06-19T11:58:43.348Z,0.30
2018-06-19T12:01:12.218Z,0.40
2018-06-19T12:03:41.003Z,0.30
2018-06-19T12:06:09.777Z,0.30
2018-06-19T12:08:38.516Z,0.40
2018-06-19T12:11:07.278Z,0.10
2018-06-19T12:13:36.078Z,0.43
2018-06-19T12:16:04.870Z,0.50
2018-06-19T12:18:33.621Z,0.30
2018-06-19T12:21:02.538Z,0.20
2018-06-19T12:23:31.535Z,0.40
2018-06-19T12:26:00.327Z,0.40
2018-06-19T12:28:29.194Z,0.40
2018-06-19T12:30:57.978Z,0.20
2018-06-19T12:33:26.773Z,0.47
2018-06-19T12:35:55.553Z,0.30
2018-06-19T12:38:24.295Z,0.40
2018-06-19T12:40:53.085Z,0.20
2018-06-19T12:43:22.017Z,0.63
2018-06-19T12:45:50.800Z,0.80
2018-06-19T12:48:19.553Z,0.30
2018-06-19T12:52:02.326Z,0.10
2018-06-19T12:55:41.805Z,0.43
2018-06-19T12:58:10.714Z,0.30
2018-06-19T13:00:39.478Z,0.30
2018-06-19T13:03:19.351Z,0.40
2018-06-19T13:05:59.243Z,0.50
2018-06-19T13:08:28.086Z,0.53
2018-06-19T13:10:56.964Z,0.60
2018-06-19T13:13:36.774Z,0.20
2018-06-19T13:16:05.672Z,0.20
2018-06-19T13:18:45.537Z,0.50
2018-06-19T13:21:14.331Z,0.40
2018-06-19T13:23:43.105Z,0.30
2018-06-19T13:26:11.913Z,0.50
2018-06-19T13:29:57.461Z,0.20
2018-06-19T13:32:26.585Z,0.53
2018-06-19T13:34:55.435Z,0.20
2018-06-19T13:37:24.439Z,0.20
2018-06-19T13:41:12.270Z,0.40
2018-06-19T13:43:52.155Z,0.30
2018-06-19T13:46:21.085Z,0.40
2018-06-19T13:48:49.941Z,0.20
2018-06-19T13:51:18.773Z,0.40
2018-06-19T13:53:47.552Z,0.20
2018-06-19T13:57:29.929Z,0.20
2018-06-19T13:59:59.577Z,0.23
2018-06-19T14:02:28.382Z,0.30
2018-06-19T14:04:57.362Z,0.10
2018-06-19T14:07:26.963Z,0.27
2018-06-19T14:10:07.124Z,0.33
2018-06-19T14:13:12.889Z,0.40
2018-06-19T14:15:50.322Z,0.20
2018-06-19T14:18:20.448Z,0.20
2018-06-19T14:20:49.360Z,0.20
2018-06-19T14:23:18.195Z,2.70
2018-06-19T14:25:46.995Z,1.20
2018-06-19T14:28:15.789Z,0.30
2018-06-19T14:30:44.573Z,1.03
2018-06-19T14:33:13.386Z,0.70
2018-06-19T14:35:42.173Z,0.27
2018-06-19T14:38:10.998Z,0.37
2018-06-19T14:40:39.837Z,0.20
2018-06-19T14:43:08.720Z,0.50
2018-06-19T14:45:37.485Z,0.30
2018-06-19T14:48:06.353Z,0.50
2018-06-19T14:50:35.154Z,0.20
2018-06-19T14:53:03.926Z,0.20
2018-06-19T14:55:32.766Z,0.23
2018-06-19T14:58:01.589Z,0.60
2018-06-19T15:00:30.398Z,0.20
2018-06-19T15:02:59.170Z,0.20
2018-06-19T15:05:28.027Z,0.40
2018-06-19T15:07:56.817Z,0.30
2018-06-19T15:10:25.645Z,0.13
2018-06-19T15:12:54.405Z,0.40
2018-06-19T15:15:23.234Z,0.40
2018-06-19T15:17:52.023Z,0.20
2018-06-19T15:20:20.847Z,0.30
2018-06-19T15:22:49.674Z,0.30
2018-06-19T15:25:18.597Z,0.30
2018-06-19T15:27:47.373Z,0.20
2018-06-19T15:30:16.153Z,0.20
2018-06-19T15:32:44.927Z,0.20
2018-06-19T15:35:13.730Z,0.30
2018-06-19T15:37:42.570Z,0.30
2018-06-19T15:40:11.334Z,0.23
2018-06-19T15:42:40.104Z,0.40
2018-06-19T15:45:08.883Z,0.23
2018-06-19T15:47:37.705Z,0.30
2018-06-19T15:50:06.594Z,0.20
2018-06-19T15:52:35.413Z,0.37
2018-06-19T15:55:04.226Z,0.20
2018-06-19T15:57:33.008Z,0.20
2018-06-19T16:00:01.822Z,0.20
2018-06-19T16:02:30.594Z,0.17
2018-06-19T16:04:59.389Z,0.20
2018-06-19T16:07:28.180Z,0.23
2018-06-19T16:09:56.925Z,0.20
2018-06-19T16:12:25.673Z,0.57
2018-06-19T16:14:54.437Z,0.30
2018-06-19T16:17:23.221Z,0.60
2018-06-19T16:19:52.002Z,0.30
2018-06-19T16:22:20.753Z,0.30
2018-06-19T16:24:49.538Z,0.40
2018-06-19T16:27:18.284Z,0.43
2018-06-19T16:29:47.042Z,0.40
2018-06-19T16:32:15.801Z,0.20
2018-06-19T16:34:45.446Z,0.20
2018-06-19T16:37:14.201Z,0.50
2018-06-19T16:39:43.120Z,0.40
2018-06-19T16:42:11.881Z,0.60
2018-06-19T16:44:40.741Z,2.43
2018-06-19T16:47:09.518Z,0.30
2018-06-19T16:49:38.293Z,0.20
2018-06-19T16:52:07.270Z,0.43
2018-06-19T16:54:36.047Z,0.40
2018-06-19T16:57:04.853Z,3.17
2018-06-19T16:59:33.633Z,0.40
2018-06-19T17:02:02.430Z,0.40
2018-06-19T17:04:31.193Z,0.30
2018-06-19T17:06:59.982Z,0.40
2018-06-19T17:09:28.733Z,0.20
2018-06-19T17:11:57.506Z,0.40
2018-06-19T17:14:26.293Z,0.40
2018-06-19T17:16:55.410Z,0.63
2018-06-19T17:19:24.201Z,0.53
2018-06-19T17:21:52.964Z,0.20
2018-06-19T17:24:21.701Z,0.40
2018-06-19T17:26:50.500Z,0.50
2018-06-19T17:29:19.250Z,0.20
2018-06-19T17:31:48.136Z,0.33
2018-06-19T17:34:16.926Z,1.17
2018-06-19T17:36:45.720Z,0.33
2018-06-19T17:39:14.502Z,0.30
2018-06-19T17:41:43.277Z,0.40
2018-06-19T17:44:12.037Z,0.17
2018-06-19T17:46:40.806Z,0.30
2018-06-19T17:49:09.579Z,0.20
2018-06-19T17:51:38.335Z,0.20
2018-06-19T17:54:07.205Z,0.30
2018-06-19T17:56:35.971Z,0.20
2018-06-19T17:59:04.737Z,0.10
2018-06-19T18:01:33.525Z,0.40
2018-06-19T18:04:02.285Z,0.30
2018-06-19T18:06:31.031Z,0.30
2018-06-19T18:08:59.777Z,0.20
2018-06-19T18:11:28.607Z,0.20
2018-06-19T18:13:57.376Z,0.10
2018-06-19T18:16:26.126Z,0.10
2018-06-19T18:18:54.886Z,0.20
2018-06-19T18:21:23.756Z,0.27
2018-06-19T18:23:52.599Z,0.20
2018-06-19T18:26:21.389Z,0.30
2018-06-19T18:28:50.183Z,0.10
2018-06-19T18:31:18.947Z,0.10
2018-06-19T18:33:47.695Z,0.10
2018-06-19T18:36:16.492Z,0.70
2018-06-19T18:38:45.290Z,0.10
2018-06-19T18:41:14.058Z,0.20
2018-06-19T18:43:42.843Z,0.10
2018-06-19T18:46:11.638Z,0.10
2018-06-19T18:48:40.401Z,0.10
2018-06-19T18:51:09.181Z,0.10
2018-06-19T18:53:37.934Z,0.10
2018-06-19T18:56:06.758Z,0.10
2018-06-19T18:58:35.747Z,0.10
2018-06-19T19:01:04.574Z,0.20
2018-06-19T19:03:33.557Z,0.30
2018-06-19T19:06:02.369Z,0.20
2018-06-19T19:08:31.149Z,0.10
2018-06-19T19:10:59.934Z,0.10
2018-06-19T19:13:29.171Z,0.20
2018-06-19T19:16:03.298Z,0.13
2018-06-19T19:18:37.310Z,0.10
2018-06-19T19:21:06.062Z,0.10
2018-06-19T19:23:34.877Z,0.17
2018-06-19T19:26:03.666Z,0.20
2018-06-19T19:28:37.558Z,0.10
2018-06-19T19:31:06.346Z,0.10
2018-06-19T19:33:35.151Z,0.20
2018-06-19T19:36:03.950Z,0.20
2018-06-19T19:38:37.821Z,0.17
2018-06-19T19:41:06.633Z,0.20
2018-06-19T19:43:35.420Z,0.20
2018-06-19T19:46:04.175Z,0.20
2018-06-19T19:48:37.933Z,0.30
2018-06-19T19:51:06.701Z,0.50
2018-06-19T19:53:35.480Z,0.20
2018-06-19T19:56:09.557Z,0.20
2018-06-19T19:58:43.373Z,0.27
2018-06-19T20:01:12.142Z,0.40
2018-06-19T20:03:40.884Z,0.20
2018-06-19T20:06:09.642Z,0.30
2018-06-19T20:08:38.400Z,0.20
2018-06-19T20:11:07.230Z,0.20
2018-06-19T20:13:35.994Z,0.20
2018-06-19T20:16:04.874Z,0.30
2018-06-19T20:18:33.661Z,0.30
2018-06-19T20:21:02.429Z,0.10
2018-06-19T20:23:31.233Z,0.23
2018-06-19T20:26:00.045Z,0.20
2018-06-19T20:28:28.807Z,0.33
2018-06-19T20:30:57.579Z,0.50
2018-06-19T20:33:26.397Z,0.37
2018-06-19T20:35:55.166Z,0.20
2018-06-19T20:38:23.985Z,0.20
2018-06-19T20:40:52.737Z,0.20
2018-06-19T20:43:21.501Z,0.30
2018-06-19T20:45:50.306Z,0.30
2018-06-19T20:48:19.147Z,0.30
2018-06-19T20:50:47.866Z,0.20
2018-06-19T20:53:16.641Z,0.10
2018-06-19T20:55:45.434Z,0.27
2018-06-19T20:58:14.222Z,0.20
2018-06-19T21:00:43.018Z,0.27
2018-06-19T21:03:11.806Z,0.20
2018-06-19T21:05:40.596Z,0.20
2018-06-19T21:08:09.426Z,0.20
2018-06-19T21:10:38.203Z,0.20
2018-06-19T21:13:06.989Z,0.30
2018-06-19T21:15:35.805Z,0.37
2018-06-19T21:18:04.558Z,0.30
2018-06-19T21:20:33.353Z,0.40
2018-06-19T21:23:02.227Z,0.30
2018-06-19T21:25:30.918Z,0.20
2018-06-19T21:27:59.662Z,0.30
2018-06-19T21:30:28.473Z,0.30
2018-06-19T21:32:57.266Z,0.27
2018-06-19T21:35:26.024Z,0.30
2018-06-19T21:37:54.822Z,0.27
2018-06-19T21:40:23.554Z,0.30
2018-06-19T21:42:52.299Z,0.30
2018-06-19T21:45:21.086Z,0.20
2018-06-19T21:47:49.886Z,0.20
2018-06-19T21:50:18.634Z,0.20
2018-06-19T21:52:47.401Z,0.10
2018-06-19T21:55:16.147Z,0.30
2018-06-19T21:57:44.894Z,0.30
2018-06-19T22:00:13.690Z,0.27
2018-06-19T22:02:42.461Z,0.20
2018-06-19T22:05:11.223Z,0.20
2018-06-19T22:07:40.026Z,0.20
2018-06-19T22:10:08.825Z,0.20
2018-06-19T22:12:37.605Z,0.20
2018-06-19T22:15:06.750Z,0.20
2018-06-19T22:17:35.554Z,0.30
2018-06-19T22:20:04.423Z,0.20
2018-06-19T22:22:33.206Z,0.20
2018-06-19T22:25:01.956Z,0.10
2018-06-19T22:27:30.745Z,0.20
2018-06-19T22:29:59.538Z,0.20
2018-06-19T22:32:28.361Z,0.20
2018-06-19T22:34:57.123Z,0.20
2018-06-19T22:37:25.979Z,0.10
2018-06-19T22:39:54.713Z,0.20
2018-06-19T22:42:23.453Z,0.20
2018-06-19T22:44:52.225Z,0.40
2018-06-19T22:47:20.987Z,0.30
2018-06-19T22:49:49.744Z,0.10
2018-06-19T22:52:18.853Z,0.30
2018-06-19T22:54:47.619Z,0.20
2018-06-19T22:57:16.380Z,0.20
2018-06-19T22:59:45.149Z,0.13
2018-06-19T23:02:13.922Z,0.20
2018-06-19T23:04:42.710Z,0.30
2018-06-19T23:07:11.466Z,0.30
2018-06-19T23:09:40.209Z,0.20
2018-06-19T23:12:09.006Z,0.20
2018-06-19T23:14:37.872Z,0.20
2018-06-19T23:17:06.656Z,0.10
2018-06-19T23:19:35.415Z,0.20
2018-06-19T23:22:04.221Z,0.23
2018-06-19T23:24:32.973Z,0.30
2018-06-19T23:27:01.714Z,0.20
2018-06-19T23:29:30.477Z,0.10
2018-06-19T23:31:59.246Z,0.13
2018-06-19T23:34:27.994Z,0.10
2018-06-19T23:36:56.773Z,0.30
2018-06-19T23:39:25.533Z,0.20
2018-06-19T23:41:54.286Z,0.30
2018-06-19T23:44:23.090Z,0.20
2018-06-19T23:46:51.867Z,0.30
2018-06-19T23:49:20.602Z,0.20
2018-06-19T23:51:49.406Z,0.20
2018-06-19T23:54:18.195Z,0.27
2018-06-19T23:56:46.994Z,0.30
2018-06-19T23:59:15.775Z,0.30
